Country
Station

 

Weather  for  Oklahoma City, Wiley Post Airport  -  United States    United States

  
-1 °C (30 °F)
    
 
 

Current METAR for Oklahoma City, Wiley Post Airport is :

KPWA 191353Z 07010KT 9SM BKN090 M01/M06 A3024 RMK AO2 SLP251 T10111056

 

This is a report for Oklahoma City, Wiley Post Airport - United States.
 
The report was made 18 minutes ago, at 13:53 UTC .
The wind was blowing at a speed of 5.1 meters per second (11.5 miles per hour) from east/northeast (070°).
 
The temperature was -1 °C (30 °F), with a dew-point at -6 °C (21 °F).
The temperature felt like -6 °C (20 °F).
 
The atmospheric pressure was 1024 hPa (30.24 inHg).
The relative humidity was 68.7%.
 
There were broken clouds at a height of 2743 meters (9000 feet).
 
The overall visibility was 14.5 kilometers (9.0 miles).
 

 
 
 
 

Country :   A   B   C   D   E   F   G   H   I   J   K   L   M   N   O   P   Q   R   S   T   U   V   W   Y   Z

 

Site Info  |  Disclaimer  |  Credits  |  Privacy
Contact us  |  Add to favorites
© 2013-2019 METARs - All rights reserved